Monday, November 20, 2017, 2:06 PM EST
Back to Local

KBHB, Bar Harbor, Hancock County-bar Harbor Airport

Location: Ellsworth, ME, United States Lat: 44.45
Local Time: 2:06 PM EST (19:06 GMT) Lon: -68.367
Time Zone: US/Eastern Elev: 82 ft

Show me the last for .
Show Decoded

2017-11-20 13:56 METAR KBHB 201856Z AUTO 28013G21KT 10SM FEW060 01/M12 A2973 RMK AO2 SLP072
                 T00061122 FZRANO PNO $ =
2017-11-20 12:56 METAR KBHB 201756Z AUTO 29011G18KT 10SM BKN050 02/M11 A2972 RMK AO2 SLP068 6////
                 T00171106 10017 21011 55000 FZRANO PNO $ =
2017-11-20 11:56 METAR KBHB 201656Z AUTO 27014G21KT 10SM SCT047 SCT055 01/M09 A2971 RMK AO2
                 SLP066 T00111089 FZRANO PNO $ =
2017-11-20 10:56 METAR KBHB 201556Z AUTO 29012G19KT 10SM OVC043 01/M08 A2972 RMK AO2 SLP067
                 T00061083 FZRANO PNO $ =
2017-11-20 09:56 METAR KBHB 201456Z AUTO 28010G22KT 10SM BKN045 00/M09 A2972 RMK AO2 SLP069 6////
                 T00001094 51021 FZRANO PNO $ =
2017-11-20 08:56 METAR KBHB 201356Z AUTO 29015G23KT 10SM CLR 00/M08 A2971 RMK AO2 SLP064
                 T00001078 FZRANO PNO $ =
2017-11-20 07:56 METAR KBHB 201256Z AUTO 28008G16KT 250V330 10SM CLR M01/M06 A2969 RMK AO2 SLP058
                 T10061061 FZRANO PNO $ =
2017-11-20 06:56 METAR KBHB 201156Z AUTO 26007KT 10SM CLR M01/M06 A2966 RMK AO2 SLP047 6////
                 7//// T10111061 10006 21011 53031 FZRANO PNO $ =
2017-11-20 05:56 METAR KBHB 201056Z AUTO 25005KT 10SM CLR M01/M06 A2962 RMK AO2 SLP035 T10111061
                 FZRANO PNO $ =
2017-11-20 04:56 METAR KBHB 200956Z AUTO 26006KT 10SM CLR M01/M06 A2959 RMK AO2 SLP026 T10061061
                 FZRANO PNO $ =
2017-11-20 03:56 METAR KBHB 200856Z AUTO 26005KT 10SM CLR M01/M06 A2957 RMK AO2 SLP016 6////
                 T10061056 53019 FZRANO PNO $ =
2017-11-20 02:56 METAR KBHB 200756Z AUTO 27005KT 10SM OVC035 01/M06 A2954 RMK AO2 SLP007
                 T00061056 FZRANO PNO $ =
2017-11-20 01:56 METAR KBHB 200656Z AUTO 28007G15KT 10SM OVC037 01/M06 A2953 RMK AO2 SLP003
                 T00061056 FZRANO PNO $ =
2017-11-20 00:56 METAR KBHB 200556Z AUTO 27004KT 10SM OVC041 01/M06 A2951 RMK AO2 SLP997 6////
                 T00061056 10028 20000 51022 FZRANO PNO $ =
2017-11-19 23:56 METAR KBHB 200456Z AUTO 27005KT 10SM OVC041 01/M05 A2950 RMK AO2 SLP994
                 T00061050 FZRANO PNO $ =
2017-11-19 22:56 METAR KBHB 200356Z AUTO VRB06KT 10SM OVC037 01/M04 A2949 RMK AO2 SLP989
                 T00061044 FZRANO PNO $ =
2017-11-19 21:56 METAR KBHB 200256Z AUTO 28008KT 250V320 10SM OVC037 01/M04 A2945 RMK AO2 SLP975
                 6//// T00061044 51052 FZRANO PNO $ =
2017-11-19 20:56 METAR KBHB 200156Z AUTO VRB06KT 10SM BKN035 01/M04 A2940 RMK AO2 SLP959
                 T00061039 FZRANO PNO $ =
2017-11-19 19:27 METAR KBHB 200027Z AUTO 26008G15KT 10SM BKN033 02/M02 A2932 RMK AO2 FZRANO PNO $
                 =
2017-11-19 18:56 METAR KBHB 192356Z AUTO 26008G18KT 10SM BKN029 03/M01 A2929 RMK AO2 SLP923 6////
                 T00281006 10133 20028 401330028 51077 PNO $ =
2017-11-19 17:56 METAR KBHB 192256Z AUTO 28008G16KT 10SM OVC020 05/02 A2923 RMK AO2 PRESRR SLP900
                 T00500017 PNO $ =
2017-11-19 16:56 METAR KBHB 192156Z AUTO 30014G20KT 10SM BKN018 BKN024 OVC047 07/04 A2915 RMK AO2
                 RAB2058E25 PRESRR SLP874 T00670039 PNO $ =
2017-11-19 16:19 METAR KBHB 192119Z AUTO 28011G20KT 10SM -RA FEW008 OVC016 09/07 A2910 RMK AO2
                 RAB2058 PRESRR PNO $ =
2017-11-19 15:56 METAR KBHB 192056Z AUTO 25010G16KT 220V300 9SM OVC008 12/11 A2906 RMK AO2 RAE33
                 CIG 007V012 PRESRR SLP846 6//// T01220111 53010 PNO $ =

Support USWX by starting your Amazon purchase here.